sensor_id;sensor_type;location;lat;lon;timestamp;P1;durP1;ratioP1;P2;durP2;ratioP2
77870;SDS011;67067;46.850;7.578;2023-02-23T00:00:36;30.92;;;17.15;;
77870;SDS011;67067;46.850;7.578;2023-02-23T00:01:37;29.10;;;16.27;;
77870;SDS011;67067;46.850;7.578;2023-02-23T00:02:40;31.42;;;18.13;;
77870;SDS011;67067;46.850;7.578;2023-02-23T00:03:40;31.70;;;16.33;;
77870;SDS011;67067;46.850;7.578;2023-02-23T00:04:41;31.73;;;16.50;;
77870;SDS011;67067;46.850;7.578;2023-02-23T00:05:41;32.37;;;18.80;;
77870;SDS011;67067;46.850;7.578;2023-02-23T00:06:42;35.90;;;19.23;;
77870;SDS011;67067;46.850;7.578;2023-02-23T00:07:43;40.63;;;22.23;;
77870;SDS011;67067;46.850;7.578;2023-02-23T00:09:46;31.58;;;17.05;;
77870;SDS011;67067;46.850;7.578;2023-02-23T00:10:47;31.13;;;18.20;;
77870;SDS011;67067;46.850;7.578;2023-02-23T00:11:48;30.07;;;17.47;;
77870;SDS011;67067;46.850;7.578;2023-02-23T00:12:56;34.72;;;18.70;;
77870;SDS011;67067;46.850;7.578;2023-02-23T00:13:58;28.77;;;15.70;;
77870;SDS011;67067;46.850;7.578;2023-02-23T00:16:02;30.63;;;16.85;;
77870;SDS011;67067;46.850;7.578;2023-02-23T00:17:05;30.90;;;16.70;;
77870;SDS011;67067;46.850;7.578;2023-02-23T00:18:13;31.60;;;17.63;;
77870;SDS011;67067;46.850;7.578;2023-02-23T00:19:13;29.00;;;15.30;;
77870;SDS011;67067;46.850;7.578;2023-02-23T00:20:14;31.13;;;16.83;;
77870;SDS011;67067;46.850;7.578;2023-02-23T00:21:16;29.70;;;15.13;;
77870;SDS011;67067;46.850;7.578;2023-02-23T00:22:18;31.13;;;17.20;;
77870;SDS011;67067;46.850;7.578;2023-02-23T00:23:19;24.50;;;13.17;;
77870;SDS011;67067;46.850;7.578;2023-02-23T00:24:19;30.20;;;16.30;;
77870;SDS011;67067;46.850;7.578;2023-02-23T00:25:21;30.67;;;15.48;;
77870;SDS011;67067;46.850;7.578;2023-02-23T00:26:24;29.00;;;16.20;;
77870;SDS011;67067;46.850;7.578;2023-02-23T00:27:29;27.15;;;14.30;;
77870;SDS011;67067;46.850;7.578;2023-02-23T00:28:30;31.30;;;16.55;;
77870;SDS011;67067;46.850;7.578;2023-02-23T00:29:31;34.23;;;19.07;;
77870;SDS011;67067;46.850;7.578;2023-02-23T00:30:38;30.30;;;17.45;;
77870;SDS011;67067;46.850;7.578;2023-02-23T00:31:38;36.80;;;21.50;;
77870;SDS011;67067;46.850;7.578;2023-02-23T00:32:39;31.67;;;17.63;;
77870;SDS011;67067;46.850;7.578;2023-02-23T00:33:40;29.60;;;16.88;;
77870;SDS011;67067;46.850;7.578;2023-02-23T00:34:41;31.65;;;18.52;;
77870;SDS011;67067;46.850;7.578;2023-02-23T00:35:42;33.03;;;18.23;;
77870;SDS011;67067;46.850;7.578;2023-02-23T00:36:47;29.05;;;15.70;;
77870;SDS011;67067;46.850;7.578;2023-02-23T00:37:50;31.40;;;16.60;;
77870;SDS011;67067;46.850;7.578;2023-02-23T00:38:54;27.50;;;14.47;;
77870;SDS011;67067;46.850;7.578;2023-02-23T00:39:55;33.00;;;18.27;;
77870;SDS011;67067;46.850;7.578;2023-02-23T00:40:56;34.63;;;17.63;;
77870;SDS011;67067;46.850;7.578;2023-02-23T00:41:56;33.43;;;18.17;;
77870;SDS011;67067;46.850;7.578;2023-02-23T00:43:02;35.53;;;19.60;;
77870;SDS011;67067;46.850;7.578;2023-02-23T00:44:05;34.30;;;18.13;;
77870;SDS011;67067;46.850;7.578;2023-02-23T00:45:06;30.08;;;16.48;;
77870;SDS011;67067;46.850;7.578;2023-02-23T00:46:10;34.97;;;18.90;;
77870;SDS011;67067;46.850;7.578;2023-02-23T00:47:11;30.60;;;17.10;;
77870;SDS011;67067;46.850;7.578;2023-02-23T00:48:13;30.13;;;14.70;;
77870;SDS011;67067;46.850;7.578;2023-02-23T00:49:14;33.27;;;17.40;;
77870;SDS011;67067;46.850;7.578;2023-02-23T00:50:16;30.23;;;16.08;;
77870;SDS011;67067;46.850;7.578;2023-02-23T00:51:17;28.77;;;15.27;;
77870;SDS011;67067;46.850;7.578;2023-02-23T00:52:18;32.63;;;17.90;;
77870;SDS011;67067;46.850;7.578;2023-02-23T00:53:21;25.33;;;14.13;;
77870;SDS011;67067;46.850;7.578;2023-02-23T00:54:26;26.83;;;13.18;;
77870;SDS011;67067;46.850;7.578;2023-02-23T00:55:26;29.37;;;14.70;;
77870;SDS011;67067;46.850;7.578;2023-02-23T00:56:27;27.33;;;14.67;;
77870;SDS011;67067;46.850;7.578;2023-02-23T00:57:27;31.63;;;15.47;;
77870;SDS011;67067;46.850;7.578;2023-02-23T00:58:29;31.30;;;15.73;;
77870;SDS011;67067;46.850;7.578;2023-02-23T00:59:30;29.15;;;15.38;;
77870;SDS011;67067;46.850;7.578;2023-02-23T01:00:33;27.25;;;14.45;;
77870;SDS011;67067;46.850;7.578;2023-02-23T01:01:41;28.50;;;14.40;;
77870;SDS011;67067;46.850;7.578;2023-02-23T01:02:42;28.30;;;14.57;;
77870;SDS011;67067;46.850;7.578;2023-02-23T01:03:45;27.52;;;13.48;;
77870;SDS011;67067;46.850;7.578;2023-02-23T01:04:46;24.73;;;12.60;;
77870;SDS011;67067;46.850;7.578;2023-02-23T01:05:46;32.03;;;17.77;;
77870;SDS011;67067;46.850;7.578;2023-02-23T01:06:49;27.38;;;14.82;;
77870;SDS011;67067;46.850;7.578;2023-02-23T01:07:49;25.83;;;12.63;;
77870;SDS011;67067;46.850;7.578;2023-02-23T01:08:50;25.77;;;13.03;;
77870;SDS011;67067;46.850;7.578;2023-02-23T01:09:58;25.80;;;12.50;;
77870;SDS011;67067;46.850;7.578;2023-02-23T01:11:11;23.35;;;12.05;;
77870;SDS011;67067;46.850;7.578;2023-02-23T01:12:13;23.45;;;11.45;;
77870;SDS011;67067;46.850;7.578;2023-02-23T01:13:20;25.13;;;13.45;;
77870;SDS011;67067;46.850;7.578;2023-02-23T01:14:21;25.30;;;12.75;;
77870;SDS011;67067;46.850;7.578;2023-02-23T01:15:22;24.90;;;12.35;;
77870;SDS011;67067;46.850;7.578;2023-02-23T01:16:23;24.97;;;12.77;;
77870;SDS011;67067;46.850;7.578;2023-02-23T01:17:27;24.00;;;12.10;;
77870;SDS011;67067;46.850;7.578;2023-02-23T01:18:29;26.25;;;13.68;;
77870;SDS011;67067;46.850;7.578;2023-02-23T01:19:30;30.03;;;16.03;;
77870;SDS011;67067;46.850;7.578;2023-02-23T01:20:33;27.08;;;13.95;;
77870;SDS011;67067;46.850;7.578;2023-02-23T01:21:38;28.50;;;14.73;;
77870;SDS011;67067;46.850;7.578;2023-02-23T01:22:41;25.55;;;13.80;;
77870;SDS011;67067;46.850;7.578;2023-02-23T01:23:45;26.10;;;13.52;;
77870;SDS011;67067;46.850;7.578;2023-02-23T01:24:48;25.80;;;13.03;;
77870;SDS011;67067;46.850;7.578;2023-02-23T01:25:54;23.25;;;11.60;;
77870;SDS011;67067;46.850;7.578;2023-02-23T01:26:54;26.77;;;13.40;;
77870;SDS011;67067;46.850;7.578;2023-02-23T01:27:55;25.10;;;12.80;;
77870;SDS011;67067;46.850;7.578;2023-02-23T01:28:59;25.43;;;12.13;;
77870;SDS011;67067;46.850;7.578;2023-02-23T01:30:01;24.77;;;12.45;;
77870;SDS011;67067;46.850;7.578;2023-02-23T01:31:06;25.17;;;12.27;;
77870;SDS011;67067;46.850;7.578;2023-02-23T01:32:11;24.20;;;11.63;;
77870;SDS011;67067;46.850;7.578;2023-02-23T01:33:16;24.88;;;11.80;;
77870;SDS011;67067;46.850;7.578;2023-02-23T01:34:18;23.73;;;11.70;;
77870;SDS011;67067;46.850;7.578;2023-02-23T01:35:20;22.50;;;11.20;;
77870;SDS011;67067;46.850;7.578;2023-02-23T01:36:24;24.15;;;10.55;;
77870;SDS011;67067;46.850;7.578;2023-02-23T01:37:28;23.50;;;11.70;;
77870;SDS011;67067;46.850;7.578;2023-02-23T01:38:32;23.35;;;11.80;;
77870;SDS011;67067;46.850;7.578;2023-02-23T01:39:34;21.27;;;10.60;;
77870;SDS011;67067;46.850;7.578;2023-02-23T01:41:38;20.92;;;10.00;;
77870;SDS011;67067;46.850;7.578;2023-02-23T01:42:42;22.27;;;10.90;;
77870;SDS011;67067;46.850;7.578;2023-02-23T01:45:25;19.45;;;10.57;;
77870;SDS011;67067;46.850;7.578;2023-02-23T01:46:35;22.10;;;10.02;;
77870;SDS011;67067;46.850;7.578;2023-02-23T01:47:42;21.88;;;10.30;;
77870;SDS011;67067;46.850;7.578;2023-02-23T01:48:43;23.17;;;11.23;;
77870;SDS011;67067;46.850;7.578;2023-02-23T01:49:43;20.40;;;9.87;;
77870;SDS011;67067;46.850;7.578;2023-02-23T01:50:53;21.87;;;10.53;;
77870;SDS011;67067;46.850;7.578;2023-02-23T01:52:14;19.80;;;9.82;;
77870;SDS011;67067;46.850;7.578;2023-02-23T01:53:19;20.38;;;10.10;;
77870;SDS011;67067;46.850;7.578;2023-02-23T01:54:25;21.33;;;9.95;;
77870;SDS011;67067;46.850;7.578;2023-02-23T01:55:30;19.63;;;10.85;;
77870;SDS011;67067;46.850;7.578;2023-02-23T01:56:33;22.40;;;10.55;;
77870;SDS011;67067;46.850;7.578;2023-02-23T01:57:42;18.90;;;9.55;;
77870;SDS011;67067;46.850;7.578;2023-02-23T01:58:44;18.73;;;9.20;;
77870;SDS011;67067;46.850;7.578;2023-02-23T01:59:49;22.75;;;10.57;;
77870;SDS011;67067;46.850;7.578;2023-02-23T02:00:51;23.95;;;11.73;;
77870;SDS011;67067;46.850;7.578;2023-02-23T02:01:54;20.27;;;10.50;;
77870;SDS011;67067;46.850;7.578;2023-02-23T02:02:55;22.50;;;11.43;;
77870;SDS011;67067;46.850;7.578;2023-02-23T02:04:03;23.02;;;11.13;;
77870;SDS011;67067;46.850;7.578;2023-02-23T02:05:08;23.90;;;11.52;;
77870;SDS011;67067;46.850;7.578;2023-02-23T02:06:13;23.10;;;11.38;;
77870;SDS011;67067;46.850;7.578;2023-02-23T02:07:20;21.83;;;11.80;;
77870;SDS011;67067;46.850;7.578;2023-02-23T02:08:27;21.17;;;10.23;;
77870;SDS011;67067;46.850;7.578;2023-02-23T02:09:32;21.88;;;10.48;;
77870;SDS011;67067;46.850;7.578;2023-02-23T02:10:38;22.23;;;10.88;;
77870;SDS011;67067;46.850;7.578;2023-02-23T02:11:39;22.50;;;9.93;;
77870;SDS011;67067;46.850;7.578;2023-02-23T02:12:44;20.45;;;10.38;;
77870;SDS011;67067;46.850;7.578;2023-02-23T02:13:52;18.98;;;9.45;;
77870;SDS011;67067;46.850;7.578;2023-02-23T02:14:57;21.88;;;10.82;;
77870;SDS011;67067;46.850;7.578;2023-02-23T02:18:25;23.17;;;11.30;;
77870;SDS011;67067;46.850;7.578;2023-02-23T02:25:35;18.38;;;9.63;;
77870;SDS011;67067;46.850;7.578;2023-02-23T02:37:34;22.75;;;10.23;;
77870;SDS011;67067;46.850;7.578;2023-02-23T02:39:47;22.10;;;10.63;;
77870;SDS011;67067;46.850;7.578;2023-02-23T02:40:54;23.75;;;11.45;;
77870;SDS011;67067;46.850;7.578;2023-02-23T02:42:23;21.40;;;10.80;;
77870;SDS011;67067;46.850;7.578;2023-02-23T02:44:35;23.02;;;10.65;;
77870;SDS011;67067;46.850;7.578;2023-02-23T02:45:29;20.98;;;10.00;;
77870;SDS011;67067;46.850;7.578;2023-02-23T02:46:39;19.80;;;10.13;;
77870;SDS011;67067;46.850;7.578;2023-02-23T02:47:44;20.33;;;9.82;;
77870;SDS011;67067;46.850;7.578;2023-02-23T02:49:08;22.70;;;10.52;;
77870;SDS011;67067;46.850;7.578;2023-02-23T02:51:57;22.45;;;10.82;;
77870;SDS011;67067;46.850;7.578;2023-02-23T02:53:07;23.15;;;11.30;;
77870;SDS011;67067;46.850;7.578;2023-02-23T02:55:26;24.55;;;11.32;;
77870;SDS011;67067;46.850;7.578;2023-02-23T02:56:33;23.95;;;12.05;;
77870;SDS011;67067;46.850;7.578;2023-02-23T02:57:39;24.92;;;11.80;;
77870;SDS011;67067;46.850;7.578;2023-02-23T02:58:42;22.10;;;11.02;;
77870;SDS011;67067;46.850;7.578;2023-02-23T02:59:46;23.15;;;11.30;;
77870;SDS011;67067;46.850;7.578;2023-02-23T03:01:07;24.48;;;12.00;;
77870;SDS011;67067;46.850;7.578;2023-02-23T03:02:33;22.05;;;10.50;;
77870;SDS011;67067;46.850;7.578;2023-02-23T03:03:57;23.60;;;11.20;;
77870;SDS011;67067;46.850;7.578;2023-02-23T03:06:45;21.20;;;10.20;;
77870;SDS011;67067;46.850;7.578;2023-02-23T03:10:01;25.30;;;11.73;;
77870;SDS011;67067;46.850;7.578;2023-02-23T03:11:30;23.58;;;11.35;;
77870;SDS011;67067;46.850;7.578;2023-02-23T03:12:59;23.88;;;11.93;;
77870;SDS011;67067;46.850;7.578;2023-02-23T03:15:14;22.77;;;11.43;;
77870;SDS011;67067;46.850;7.578;2023-02-23T03:16:19;21.98;;;10.75;;
77870;SDS011;67067;46.850;7.578;2023-02-23T03:17:45;22.77;;;11.45;;
77870;SDS011;67067;46.850;7.578;2023-02-23T03:21:51;24.77;;;11.63;;
77870;SDS011;67067;46.850;7.578;2023-02-23T03:26:10;21.25;;;10.80;;
77870;SDS011;67067;46.850;7.578;2023-02-23T03:32:25;22.65;;;11.43;;
77870;SDS011;67067;46.850;7.578;2023-02-23T03:34:07;24.60;;;11.52;;
77870;SDS011;67067;46.850;7.578;2023-02-23T03:38:45;26.45;;;12.57;;
77870;SDS011;67067;46.850;7.578;2023-02-23T03:41:39;25.10;;;12.48;;
77870;SDS011;67067;46.850;7.578;2023-02-23T03:42:59;27.00;;;12.73;;
77870;SDS011;67067;46.850;7.578;2023-02-23T03:44:30;25.20;;;12.38;;
77870;SDS011;67067;46.850;7.578;2023-02-23T03:45:51;24.70;;;11.63;;
77870;SDS011;67067;46.850;7.578;2023-02-23T03:48:35;24.27;;;12.60;;
77870;SDS011;67067;46.850;7.578;2023-02-23T03:49:55;23.98;;;11.40;;
77870;SDS011;67067;46.850;7.578;2023-02-23T03:51:19;24.35;;;12.25;;
77870;SDS011;67067;46.850;7.578;2023-02-23T03:52:43;24.58;;;12.10;;
77870;SDS011;67067;46.850;7.578;2023-02-23T03:54:14;25.05;;;11.70;;
77870;SDS011;67067;46.850;7.578;2023-02-23T03:55:38;25.77;;;12.45;;
77870;SDS011;67067;46.850;7.578;2023-02-23T03:57:03;26.05;;;12.40;;
77870;SDS011;67067;46.850;7.578;2023-02-23T03:58:27;25.10;;;12.18;;
77870;SDS011;67067;46.850;7.578;2023-02-23T03:59:53;25.08;;;12.52;;
77870;SDS011;67067;46.850;7.578;2023-02-23T04:01:15;23.85;;;12.48;;
77870;SDS011;67067;46.850;7.578;2023-02-23T04:03:57;21.00;;;10.55;;
77870;SDS011;67067;46.850;7.578;2023-02-23T04:05:18;23.67;;;11.32;;
77870;SDS011;67067;46.850;7.578;2023-02-23T04:06:40;24.73;;;11.60;;
77870;SDS011;67067;46.850;7.578;2023-02-23T04:08:02;24.77;;;11.43;;
77870;SDS011;67067;46.850;7.578;2023-02-23T04:09:24;22.55;;;11.20;;
77870;SDS011;67067;46.850;7.578;2023-02-23T04:10:55;22.73;;;11.02;;
77870;SDS011;67067;46.850;7.578;2023-02-23T04:12:25;24.65;;;11.95;;
77870;SDS011;67067;46.850;7.578;2023-02-23T04:14:18;27.52;;;12.02;;
77870;SDS011;67067;46.850;7.578;2023-02-23T04:15:35;25.33;;;12.73;;
77870;SDS011;67067;46.850;7.578;2023-02-23T04:16:38;25.77;;;11.52;;
77870;SDS011;67067;46.850;7.578;2023-02-23T04:17:39;25.92;;;11.80;;
77870;SDS011;67067;46.850;7.578;2023-02-23T04:19:52;22.75;;;11.23;;
77870;SDS011;67067;46.850;7.578;2023-02-23T04:20:54;25.67;;;11.95;;
77870;SDS011;67067;46.850;7.578;2023-02-23T04:21:56;21.45;;;11.10;;
77870;SDS011;67067;46.850;7.578;2023-02-23T04:22:59;26.75;;;13.40;;
77870;SDS011;67067;46.850;7.578;2023-02-23T04:23:59;24.47;;;12.63;;
77870;SDS011;67067;46.850;7.578;2023-02-23T04:25:00;27.70;;;13.13;;
77870;SDS011;67067;46.850;7.578;2023-02-23T04:26:00;22.53;;;11.50;;
77870;SDS011;67067;46.850;7.578;2023-02-23T04:27:01;27.13;;;12.73;;
77870;SDS011;67067;46.850;7.578;2023-02-23T04:28:02;24.52;;;11.73;;
77870;SDS011;67067;46.850;7.578;2023-02-23T04:29:02;25.33;;;12.80;;
77870;SDS011;67067;46.850;7.578;2023-02-23T04:30:03;25.27;;;13.07;;
77870;SDS011;67067;46.850;7.578;2023-02-23T04:32:05;22.55;;;11.35;;
77870;SDS011;67067;46.850;7.578;2023-02-23T04:33:09;26.60;;;12.38;;
77870;SDS011;67067;46.850;7.578;2023-02-23T04:34:10;25.07;;;12.17;;
77870;SDS011;67067;46.850;7.578;2023-02-23T04:35:11;30.43;;;14.27;;
77870;SDS011;67067;46.850;7.578;2023-02-23T04:36:12;23.70;;;11.65;;
77870;SDS011;67067;46.850;7.578;2023-02-23T04:37:12;25.70;;;11.20;;
77870;SDS011;67067;46.850;7.578;2023-02-23T04:38:13;24.08;;;12.35;;
77870;SDS011;67067;46.850;7.578;2023-02-23T04:39:14;27.97;;;14.13;;
77870;SDS011;67067;46.850;7.578;2023-02-23T04:40:16;21.77;;;11.50;;
77870;SDS011;67067;46.850;7.578;2023-02-23T04:41:17;22.75;;;11.43;;
77870;SDS011;67067;46.850;7.578;2023-02-23T04:42:19;25.88;;;12.63;;
77870;SDS011;67067;46.850;7.578;2023-02-23T04:43:22;25.40;;;12.07;;
77870;SDS011;67067;46.850;7.578;2023-02-23T04:44:22;25.10;;;12.70;;
77870;SDS011;67067;46.850;7.578;2023-02-23T04:45:23;26.83;;;12.43;;
77870;SDS011;67067;46.850;7.578;2023-02-23T04:46:24;25.45;;;12.43;;
77870;SDS011;67067;46.850;7.578;2023-02-23T04:47:25;23.43;;;12.03;;
77870;SDS011;67067;46.850;7.578;2023-02-23T04:48:25;27.37;;;13.93;;
77870;SDS011;67067;46.850;7.578;2023-02-23T04:49:28;27.38;;;13.27;;
77870;SDS011;67067;46.850;7.578;2023-02-23T04:50:29;27.83;;;13.43;;
77870;SDS011;67067;46.850;7.578;2023-02-23T04:51:30;21.77;;;11.73;;
77870;SDS011;67067;46.850;7.578;2023-02-23T04:52:32;25.23;;;11.77;;
77870;SDS011;67067;46.850;7.578;2023-02-23T04:53:34;22.92;;;11.63;;
77870;SDS011;67067;46.850;7.578;2023-02-23T04:54:37;24.60;;;12.20;;
77870;SDS011;67067;46.850;7.578;2023-02-23T04:55:39;23.58;;;11.95;;
77870;SDS011;67067;46.850;7.578;2023-02-23T04:56:39;20.73;;;10.23;;
77870;SDS011;67067;46.850;7.578;2023-02-23T04:57:40;24.00;;;11.93;;
77870;SDS011;67067;46.850;7.578;2023-02-23T04:58:43;22.92;;;11.15;;
77870;SDS011;67067;46.850;7.578;2023-02-23T04:59:43;21.33;;;10.57;;
77870;SDS011;67067;46.850;7.578;2023-02-23T05:00:46;21.15;;;10.80;;
77870;SDS011;67067;46.850;7.578;2023-02-23T05:01:47;21.07;;;10.10;;
77870;SDS011;67067;46.850;7.578;2023-02-23T05:02:47;19.08;;;9.43;;
77870;SDS011;67067;46.850;7.578;2023-02-23T05:03:50;19.83;;;9.77;;
77870;SDS011;67067;46.850;7.578;2023-02-23T05:04:55;17.70;;;9.35;;
77870;SDS011;67067;46.850;7.578;2023-02-23T05:05:55;19.97;;;9.10;;
77870;SDS011;67067;46.850;7.578;2023-02-23T05:06:55;18.17;;;8.87;;
77870;SDS011;67067;46.850;7.578;2023-02-23T05:07:56;19.03;;;9.07;;
77870;SDS011;67067;46.850;7.578;2023-02-23T05:08:56;19.30;;;9.73;;
77870;SDS011;67067;46.850;7.578;2023-02-23T05:09:57;16.93;;;8.70;;
77870;SDS011;67067;46.850;7.578;2023-02-23T05:11:00;22.37;;;10.60;;
77870;SDS011;67067;46.850;7.578;2023-02-23T05:12:00;22.20;;;9.55;;
77870;SDS011;67067;46.850;7.578;2023-02-23T05:13:01;17.07;;;9.17;;
77870;SDS011;67067;46.850;7.578;2023-02-23T05:14:06;22.83;;;10.02;;
77870;SDS011;67067;46.850;7.578;2023-02-23T05:15:08;22.25;;;10.40;;
77870;SDS011;67067;46.850;7.578;2023-02-23T05:17:10;18.95;;;9.90;;
77870;SDS011;67067;46.850;7.578;2023-02-23T05:18:11;22.20;;;10.47;;
77870;SDS011;67067;46.850;7.578;2023-02-23T05:19:11;19.90;;;9.10;;
77870;SDS011;67067;46.850;7.578;2023-02-23T05:20:14;21.35;;;10.32;;
77870;SDS011;67067;46.850;7.578;2023-02-23T05:21:15;21.10;;;10.38;;
77870;SDS011;67067;46.850;7.578;2023-02-23T05:22:18;22.33;;;10.47;;
77870;SDS011;67067;46.850;7.578;2023-02-23T05:23:19;20.80;;;9.90;;
77870;SDS011;67067;46.850;7.578;2023-02-23T05:24:20;19.85;;;9.88;;
77870;SDS011;67067;46.850;7.578;2023-02-23T05:25:21;20.57;;;9.63;;
77870;SDS011;67067;46.850;7.578;2023-02-23T05:26:22;20.20;;;10.33;;
77870;SDS011;67067;46.850;7.578;2023-02-23T05:27:23;25.25;;;11.20;;
77870;SDS011;67067;46.850;7.578;2023-02-23T05:28:23;20.70;;;10.60;;
77870;SDS011;67067;46.850;7.578;2023-02-23T05:29:24;22.63;;;10.77;;
77870;SDS011;67067;46.850;7.578;2023-02-23T05:41:53;24.60;;;10.73;;
77870;SDS011;67067;46.850;7.578;2023-02-23T05:42:57;19.65;;;9.77;;
77870;SDS011;67067;46.850;7.578;2023-02-23T05:43:58;21.08;;;9.80;;
77870;SDS011;67067;46.850;7.578;2023-02-23T05:44:58;24.03;;;11.07;;
77870;SDS011;67067;46.850;7.578;2023-02-23T05:45:59;21.00;;;9.60;;
77870;SDS011;67067;46.850;7.578;2023-02-23T05:47:00;21.02;;;9.93;;
77870;SDS011;67067;46.850;7.578;2023-02-23T05:48:03;21.55;;;10.18;;
77870;SDS011;67067;46.850;7.578;2023-02-23T05:49:08;20.23;;;10.38;;
77870;SDS011;67067;46.850;7.578;2023-02-23T05:50:09;18.75;;;9.32;;
77870;SDS011;67067;46.850;7.578;2023-02-23T05:51:11;21.02;;;9.60;;
77870;SDS011;67067;46.850;7.578;2023-02-23T05:52:13;23.73;;;10.35;;
77870;SDS011;67067;46.850;7.578;2023-02-23T05:53:13;18.83;;;8.67;;
77870;SDS011;67067;46.850;7.578;2023-02-23T05:54:14;18.13;;;9.13;;
77870;SDS011;67067;46.850;7.578;2023-02-23T05:55:14;21.37;;;10.23;;
77870;SDS011;67067;46.850;7.578;2023-02-23T05:56:16;20.73;;;9.83;;
77870;SDS011;67067;46.850;7.578;2023-02-23T05:57:19;22.27;;;10.13;;
77870;SDS011;67067;46.850;7.578;2023-02-23T05:58:20;19.70;;;9.50;;
77870;SDS011;67067;46.850;7.578;2023-02-23T05:59:20;20.67;;;9.67;;
77870;SDS011;67067;46.850;7.578;2023-02-23T06:00:21;17.40;;;9.27;;
77870;SDS011;67067;46.850;7.578;2023-02-23T06:01:22;22.42;;;10.75;;
77870;SDS011;67067;46.850;7.578;2023-02-23T06:02:23;20.88;;;10.05;;
77870;SDS011;67067;46.850;7.578;2023-02-23T06:03:23;20.60;;;10.00;;
77870;SDS011;67067;46.850;7.578;2023-02-23T06:04:24;18.73;;;9.23;;
77870;SDS011;67067;46.850;7.578;2023-02-23T06:05:24;18.60;;;9.33;;
77870;SDS011;67067;46.850;7.578;2023-02-23T06:06:25;20.60;;;9.37;;
77870;SDS011;67067;46.850;7.578;2023-02-23T06:07:29;18.20;;;8.88;;
77870;SDS011;67067;46.850;7.578;2023-02-23T06:08:30;15.43;;;8.00;;
77870;SDS011;67067;46.850;7.578;2023-02-23T06:09:33;18.83;;;9.23;;
77870;SDS011;67067;46.850;7.578;2023-02-23T06:10:34;19.75;;;9.70;;
77870;SDS011;67067;46.850;7.578;2023-02-23T06:11:34;20.20;;;9.27;;
77870;SDS011;67067;46.850;7.578;2023-02-23T06:12:35;13.10;;;7.40;;
77870;SDS011;67067;46.850;7.578;2023-02-23T06:13:36;21.83;;;10.17;;
77870;SDS011;67067;46.850;7.578;2023-02-23T06:14:39;19.40;;;9.63;;
77870;SDS011;67067;46.850;7.578;2023-02-23T06:15:42;21.98;;;10.90;;
77870;SDS011;67067;46.850;7.578;2023-02-23T06:16:45;19.98;;;9.68;;
77870;SDS011;67067;46.850;7.578;2023-02-23T06:17:47;22.63;;;10.10;;
77870;SDS011;67067;46.850;7.578;2023-02-23T06:18:48;22.20;;;10.13;;
77870;SDS011;67067;46.850;7.578;2023-02-23T06:19:48;18.43;;;9.10;;
77870;SDS011;67067;46.850;7.578;2023-02-23T06:20:49;21.63;;;9.67;;
77870;SDS011;67067;46.850;7.578;2023-02-23T06:21:49;17.17;;;8.73;;
77870;SDS011;67067;46.850;7.578;2023-02-23T06:22:52;19.98;;;9.38;;
77870;SDS011;67067;46.850;7.578;2023-02-23T06:23:52;19.13;;;9.40;;
77870;SDS011;67067;46.850;7.578;2023-02-23T06:24:53;23.17;;;9.70;;
77870;SDS011;67067;46.850;7.578;2023-02-23T06:25:53;19.83;;;9.23;;
77870;SDS011;67067;46.850;7.578;2023-02-23T06:26:54;17.20;;;8.50;;
77870;SDS011;67067;46.850;7.578;2023-02-23T06:27:55;21.83;;;9.80;;
77870;SDS011;67067;46.850;7.578;2023-02-23T06:28:58;22.30;;;9.55;;
77870;SDS011;67067;46.850;7.578;2023-02-23T06:29:58;22.90;;;10.30;;
77870;SDS011;67067;46.850;7.578;2023-02-23T06:30:59;17.77;;;9.07;;
77870;SDS011;67067;46.850;7.578;2023-02-23T06:32:02;21.27;;;9.90;;
77870;SDS011;67067;46.850;7.578;2023-02-23T06:33:04;18.25;;;9.10;;
77870;SDS011;67067;46.850;7.578;2023-02-23T06:34:05;18.05;;;8.70;;
77870;SDS011;67067;46.850;7.578;2023-02-23T06:35:06;23.40;;;10.53;;
77870;SDS011;67067;46.850;7.578;2023-02-23T06:36:07;22.40;;;9.68;;
77870;SDS011;67067;46.850;7.578;2023-02-23T06:37:09;23.98;;;11.30;;
77870;SDS011;67067;46.850;7.578;2023-02-23T06:38:11;22.65;;;9.55;;
77870;SDS011;67067;46.850;7.578;2023-02-23T06:39:11;22.45;;;11.02;;
77870;SDS011;67067;46.850;7.578;2023-02-23T06:40:12;25.40;;;11.43;;
77870;SDS011;67067;46.850;7.578;2023-02-23T06:41:15;23.75;;;10.88;;
77870;SDS011;67067;46.850;7.578;2023-02-23T06:42:16;24.20;;;11.35;;
77870;SDS011;67067;46.850;7.578;2023-02-23T06:43:17;22.83;;;10.80;;
77870;SDS011;67067;46.850;7.578;2023-02-23T06:44:17;25.23;;;11.87;;
77870;SDS011;67067;46.850;7.578;2023-02-23T06:45:18;22.87;;;10.83;;
77870;SDS011;67067;46.850;7.578;2023-02-23T06:46:18;22.10;;;11.33;;
77870;SDS011;67067;46.850;7.578;2023-02-23T06:47:19;22.13;;;10.93;;
77870;SDS011;67067;46.850;7.578;2023-02-23T06:48:19;24.07;;;11.33;;
77870;SDS011;67067;46.850;7.578;2023-02-23T06:49:20;25.50;;;11.33;;
77870;SDS011;67067;46.850;7.578;2023-02-23T06:50:20;22.93;;;10.50;;
77870;SDS011;67067;46.850;7.578;2023-02-23T06:51:23;20.73;;;9.23;;
77870;SDS011;67067;46.850;7.578;2023-02-23T06:52:24;28.58;;;13.68;;
77870;SDS011;67067;46.850;7.578;2023-02-23T06:53:25;20.07;;;9.77;;
77870;SDS011;67067;46.850;7.578;2023-02-23T06:54:26;23.03;;;10.93;;
77870;SDS011;67067;46.850;7.578;2023-02-23T06:55:28;20.15;;;10.10;;
77870;SDS011;67067;46.850;7.578;2023-02-23T06:56:29;19.70;;;10.53;;
77870;SDS011;67067;46.850;7.578;2023-02-23T06:57:30;22.17;;;10.90;;
77870;SDS011;67067;46.850;7.578;2023-02-23T06:58:33;22.65;;;11.23;;
77870;SDS011;67067;46.850;7.578;2023-02-23T06:59:33;25.47;;;11.67;;
77870;SDS011;67067;46.850;7.578;2023-02-23T07:00:35;22.52;;;10.93;;
77870;SDS011;67067;46.850;7.578;2023-02-23T07:01:37;26.95;;;11.82;;
77870;SDS011;67067;46.850;7.578;2023-02-23T07:02:40;26.00;;;11.97;;
77870;SDS011;67067;46.850;7.578;2023-02-23T07:03:41;26.73;;;12.48;;
77870;SDS011;67067;46.850;7.578;2023-02-23T07:04:42;23.83;;;11.77;;
77870;SDS011;67067;46.850;7.578;2023-02-23T07:05:42;19.03;;;9.90;;
77870;SDS011;67067;46.850;7.578;2023-02-23T07:06:43;15.63;;;8.33;;
77870;SDS011;67067;46.850;7.578;2023-02-23T07:07:43;22.73;;;11.10;;
77870;SDS011;67067;46.850;7.578;2023-02-23T07:08:45;16.17;;;8.60;;
77870;SDS011;67067;46.850;7.578;2023-02-23T07:09:46;22.53;;;10.77;;
77870;SDS011;67067;46.850;7.578;2023-02-23T07:10:51;18.88;;;10.13;;
77870;SDS011;67067;46.850;7.578;2023-02-23T07:11:52;21.30;;;10.50;;
77870;SDS011;67067;46.850;7.578;2023-02-23T07:12:53;19.15;;;9.93;;
77870;SDS011;67067;46.850;7.578;2023-02-23T07:13:56;23.67;;;11.13;;
77870;SDS011;67067;46.850;7.578;2023-02-23T07:14:57;22.13;;;10.55;;
77870;SDS011;67067;46.850;7.578;2023-02-23T07:15:58;23.27;;;11.07;;
77870;SDS011;67067;46.850;7.578;2023-02-23T07:16:58;22.67;;;11.50;;
77870;SDS011;67067;46.850;7.578;2023-02-23T07:17:59;21.63;;;10.63;;
77870;SDS011;67067;46.850;7.578;2023-02-23T07:19:02;25.65;;;12.68;;
77870;SDS011;67067;46.850;7.578;2023-02-23T07:20:05;24.02;;;12.48;;
77870;SDS011;67067;46.850;7.578;2023-02-23T07:21:06;25.00;;;12.63;;
77870;SDS011;67067;46.850;7.578;2023-02-23T07:22:09;25.50;;;12.82;;
77870;SDS011;67067;46.850;7.578;2023-02-23T07:23:10;26.63;;;12.63;;
77870;SDS011;67067;46.850;7.578;2023-02-23T07:24:10;26.63;;;12.80;;
77870;SDS011;67067;46.850;7.578;2023-02-23T07:25:11;24.87;;;11.60;;
77870;SDS011;67067;46.850;7.578;2023-02-23T07:26:11;23.97;;;11.90;;